Latest Weather Observations for Horn Island

IDQ60801

Issued at 3:02 pm EST Saturday 29 February 2020 (issued every 10 minutes, with the page automatically refreshed every 10 minutes)

About weather observations | Map of weather stations | Latest weather observations for QLD | Other Formats
Station Details ID: 027058 Name: HORN ISLAND Lat: -10.58 Lon: 142.29 Height: 4.0 m
Data from the previous 72 hours. | See also: Recent months at Horn Island
Date/Time
EST
Temp
°C
App
Temp
°C
Dew
Point
°C
Rel
Hum
%
Delta-T
°C
Wind Press
QNH
hPa
Press
MSL
hPa
Rain since
9am
mm
Dir  Spd
km/h
Gust
km/h
Spd
kts
Gust
kts
29/03:00pm 32.2 36.9 26.7 72 4.0 W 15 22 8 12 1006.5 1006.5 0.4
29/02:30pm 32.5 37.5 27.7 76 3.5 WNW 17 22 9 12 1006.8 1006.8 0.4
29/02:00pm 30.8 36.0 26.3 77 3.2 NNW 11 19 6 10 1007.1 1007.1 0.4
29/01:30pm 29.7 35.3 25.4 78 3.0 ENE 6 7 3 4 1007.8 1007.8 0.2
29/01:00pm 29.2 33.3 24.5 76 3.3 E 11 15 6 8 1008.3 1008.3 0.2
29/12:30pm 30.1 34.0 24.9 73 3.6 SSW 13 19 7 10 1008.8 1008.8 0.0
29/12:00pm 31.7 37.2 26.7 75 3.6 WNW 11 19 6 10 1009.1 1009.1 0.0
29/11:30am 32.0 37.3 27.5 77 3.3 NW 15 24 8 13 1009.3 1009.3 0.0
29/11:00am 31.2 37.2 26.9 78 3.1 WNW 9 19 5 10 1009.6 1009.6 0.0
29/10:30am 30.4 35.2 26.3 79 2.9 N 13 17 7 9 1009.6 1009.6 0.0
29/10:00am 30.5 36.5 26.9 81 2.6 NW 9 15 5 8 1009.6 1009.6 0.0
29/09:30am 30.3 36.3 26.9 82 2.4 W 9 13 5 7 1009.6 1009.6 0.0
29/09:00am 30.6 37.1 27.6 84 2.2 W 9 17 5 9 1009.3 1009.3 0.0
29/08:30am 29.7 36.1 26.9 85 2.0 S 7 11 4 6 1009.1 1009.1 0.0
29/08:00am 28.4 35.4 25.8 86 1.8 CALM 0 0 0 0 1008.9 1008.9 0.0
29/07:30am 27.8 34.5 25.4 87 1.7 CALM 0 0 0 0 1008.8 1008.8 0.0
29/07:00am 26.7 32.0 24.4 87 1.6 SSW 4 6 2 3 1008.6 1008.6 0.0
29/06:30am 26.4 32.2 23.9 86 1.7 CALM 0 7 0 4 1008.3 1008.3 0.0
29/06:00am 26.5 32.3 24.0 86 1.7 CALM 0 0 0 0 1008.3 1008.3 0.0
29/05:30am 26.6 32.5 24.1 86 1.7 CALM 0 0 0 0 1008.2 1008.2 0.0
29/05:00am 26.6 31.2 24.1 86 1.7 S 7 9 4 5 1008.0 1008.0 0.0
29/04:30am 26.5 32.2 23.8 85 1.9 CALM 0 0 0 0 1007.9 1007.9 0.0
29/04:00am 26.7 30.8 24.0 85 1.9 S 9 9 5 5 1008.0 1008.0 0.0
29/03:30am 26.6 32.4 23.9 85 1.9 CALM 0 0 0 0 1008.0 1008.0 0.0
29/03:00am 26.7 32.5 24.0 85 1.9 CALM 0 0 0 0 1008.2 1008.2 0.0
29/02:30am 26.7 32.4 23.8 84 2.0 CALM 0 0 0 0 1008.5 1008.5 0.0
29/02:00am 26.7 32.4 23.8 84 2.0 CALM 0 0 0 0 1008.6 1008.6 0.0
29/01:30am 26.7 32.3 23.6 83 2.1 CALM 0 0 0 0 1008.8 1008.8 0.0
29/01:00am 27.0 32.8 23.9 83 2.1 CALM 0 0 0 0 1008.9 1008.9 0.0
29/12:30am 27.3 33.1 24.0 82 2.3 CALM 0 0 0 0 1008.8 1008.8 0.0
29/12:00am 27.2 33.0 23.9 82 2.3 CALM 0 0 0 0 1008.7 1008.7 0.0
 
Date/Time
EST
Temp
°C
App
Temp
°C
Dew
Point
°C
Rel
Hum
%
Delta-T
°C
Wind Press
QNH
hPa
Press
MSL
hPa
Rain since
9am
mm
Dir  Spd
km/h
Gust
km/h
Spd
kts
Gust
kts
28/11:30pm 27.4 33.1 23.8 81 2.5 CALM 0 0 0 0 1008.8 1008.8 0.0
28/11:00pm 27.6 33.4 24.0 81 2.5 CALM 0 0 0 0 1009.1 1009.1 0.0
28/10:30pm 27.7 33.5 23.9 80 2.6 CALM 0 0 0 0 1009.0 1009.0 0.0
28/10:00pm 28.0 33.8 24.0 79 2.8 CALM 0 0 0 0 1008.6 1008.6 0.0
28/09:30pm 28.1 33.5 23.9 78 2.9 S 2 6 1 3 1008.1 1008.1 0.0
28/09:00pm 28.3 34.1 23.9 77 3.0 CALM 0 0 0 0 1007.9 1007.9 0.0
28/08:30pm 28.6 34.3 23.7 75 3.4 CALM 0 0 0 0 1007.5 1007.5 0.0
28/08:00pm 28.7 33.0 23.6 74 3.5 W 7 9 4 5 1007.2 1007.2 0.0
28/07:30pm 29.0 33.5 23.7 73 3.7 W 6 9 3 5 1006.9 1006.9 0.0
28/07:00pm 29.4 33.3 23.6 71 4.0 W 9 13 5 7 1006.6 1006.6 0.0
28/06:30pm 30.1 33.7 23.8 69 4.4 W 11 19 6 10 1006.2 1006.2 0.0
28/06:00pm 30.8 34.8 24.4 68 4.5 W 11 17 6 9 1005.9 1005.9 0.0
28/05:30pm 31.2 35.1 24.8 69 4.5 W 13 20 7 11 1005.7 1005.7 0.0
28/05:00pm 30.9 33.7 24.3 68 4.6 WNW 17 24 9 13 1005.7 1005.7 0.0
28/04:30pm 31.4 34.5 24.8 68 4.6 W 17 26 9 14 1005.7 1005.7 0.0
28/04:00pm 31.8 35.3 25.4 69 4.5 WNW 17 24 9 13 1005.6 1005.6 0.0
28/03:30pm 32.4 36.8 26.2 70 4.4 WNW 15 20 8 11 1005.9 1005.9 0.0
28/03:00pm 31.7 35.8 25.8 71 4.2 NW 15 20 8 11 1006.3 1006.3 0.0
28/02:30pm 32.1 36.2 26.4 72 4.1 NW 17 24 9 13 1006.5 1006.5 0.0
28/02:00pm 31.5 35.1 26.1 73 3.9 NNW 19 26 10 14 1007.0 1007.0 0.0
28/01:30pm 31.8 35.7 26.6 74 3.7 NNW 19 24 10 13 1007.6 1007.6 0.0
28/01:00pm 31.2 35.2 26.2 75 3.6 NNW 17 24 9 13 1008.0 1008.0 0.0
28/12:30pm 31.4 35.4 26.7 76 3.4 NNW 19 24 10 13 1008.6 1008.6 0.0
28/12:00pm 31.3 35.7 26.8 77 3.2 NNW 17 20 9 11 1009.1 1009.1 0.0
28/11:30am 30.5 35.3 26.2 78 3.1 NNW 13 19 7 10 1009.6 1009.6 0.0
28/11:00am 30.8 35.5 26.7 79 2.9 NNW 15 20 8 11 1010.0 1010.0 0.0
28/10:30am 30.7 35.9 26.8 80 2.8 NNW 13 19 7 10 1010.3 1010.3 0.0
28/10:00am 30.1 35.1 26.5 81 2.6 NNW 13 17 7 9 1010.4 1010.4 0.0
28/09:30am 29.9 35.2 26.5 82 2.4 N 11 15 6 8 1010.7 1010.7 0.0
28/09:00am 29.9 35.5 26.9 84 2.2 NNW 11 15 6 8 1010.6 1010.6 0.0
28/08:30am 29.6 35.9 26.8 85 2.0 WNW 7 9 4 5 1010.4 1010.4 0.0
28/08:00am 28.5 35.3 26.1 87 1.7 SW 2 7 1 4 1009.9 1009.9 0.0
28/07:30am 27.1 33.4 24.7 87 1.7 CALM 0 0 0 0 1009.8 1009.8 0.0
28/07:00am 26.3 32.1 24.0 87 1.6 CALM 0 0 0 0 1009.6 1009.6 0.0
28/06:30am 26.3 32.1 24.0 87 1.6 CALM 0 0 0 0 1009.5 1009.5 0.0
28/06:00am 26.3 32.1 24.0 87 1.6 CALM 0 0 0 0 1009.3 1009.3 0.0
28/05:30am 26.6 32.6 24.3 87 1.6 CALM 0 0 0 0 1009.0 1009.0 0.0
28/05:00am 26.5 32.5 24.2 87 1.6 CALM 0 0 0 0 1008.9 1008.9 0.0
28/04:30am 26.8 32.2 24.5 87 1.6 WSW 4 9 2 5 1008.6 1008.6 0.0
28/04:00am 26.9 33.0 24.4 86 1.7 CALM 0 0 0 0 1008.8 1008.8 0.0
28/03:30am 26.8 32.8 24.3 86 1.7 CALM 0 0 0 0 1008.8 1008.8 0.0
28/03:00am 26.8 32.8 24.3 86 1.7 CALM 0 0 0 0 1008.8 1008.8 0.0
28/02:30am 26.9 33.0 24.4 86 1.7 CALM 0 0 0 0 1008.9 1008.9 0.0
28/02:00am 27.1 33.2 24.4 85 1.9 CALM 0 0 0 0 1008.9 1008.9 0.0
28/01:30am 27.2 33.3 24.5 85 1.9 CALM 0 0 0 0 1009.3 1009.3 0.0
28/01:00am 27.0 33.0 24.3 85 1.9 CALM 0 0 0 0 1009.5 1009.5 0.0
28/12:30am 27.2 33.2 24.3 84 2.0 CALM 0 0 0 0 1009.6 1009.6 0.0
28/12:00am 27.2 33.2 24.3 84 2.0 CALM 0 0 0 0 1009.8 1009.8 0.0
 
Date/Time
EST
Temp
°C
App
Temp
°C
Dew
Point
°C
Rel
Hum
%
Delta-T
°C
Wind Press
QNH
hPa
Press
MSL
hPa
Rain since
9am
mm
Dir  Spd
km/h
Gust
km/h
Spd
kts
Gust
kts
27/11:30pm 27.4 33.4 24.3 83 2.1 CALM 0 0 0 0 1009.7 1009.7 0.0
27/11:00pm 27.5 33.6 24.4 83 2.2 CALM 0 0 0 0 1009.8 1009.8 0.0
27/10:30pm 27.7 33.7 24.3 82 2.4 CALM 0 0 0 0 1009.6 1009.6 0.0
27/10:00pm 27.8 33.8 24.2 81 2.5 CALM 0 0 0 0 1009.5 1009.5 0.0
27/09:30pm 28.0 34.1 24.4 81 2.5 CALM 0 0 0 0 1009.1 1009.1 0.0
27/09:00pm 28.0 34.0 24.2 80 2.6 CALM 0 0 0 0 1008.8 1008.8 0.0
27/08:30pm 28.1 33.6 24.1 79 2.8 WNW 2 7 1 4 1008.5 1008.5 0.0
27/08:00pm 28.4 34.0 24.2 78 2.9 WNW 2 7 1 4 1008.0 1008.0 0.0
27/07:30pm 28.8 34.9 24.4 77 3.1 CALM 0 0 0 0 1007.6 1007.6 0.0
27/07:00pm 29.0 33.9 24.3 76 3.3 NW 6 9 3 5 1007.3 1007.3 0.0
27/06:30pm 29.5 34.5 24.8 76 3.3 NW 7 9 4 5 1007.1 1007.1 0.0
27/06:00pm 29.7 34.7 24.8 75 3.4 NW 7 9 4 5 1007.1 1007.1 0.0
27/05:30pm 29.9 34.6 25.0 75 3.4 NNW 9 13 5 7 1007.1 1007.1 0.0
27/05:00pm 30.0 34.3 24.9 74 3.6 NNW 11 13 6 7 1006.7 1006.7 0.0
27/04:30pm 29.9 34.0 24.5 73 3.8 NNW 11 15 6 8 1006.9 1006.9 0.0
27/04:00pm 30.2 33.7 24.8 73 3.8 NNW 15 20 8 11 1007.1 1007.1 0.0
27/03:30pm 30.6 34.8 25.4 74 3.7 N 13 19 7 10 1007.3 1007.3 0.0
27/03:00pm 31.1 37.1 26.1 75 3.6 NNE 6 9 3 5 1007.3 1007.3 0.0
27/02:30pm 31.0 35.8 26.3 76 3.4 N 13 17 7 9 1007.3 1007.3 0.0
27/02:00pm 30.8 35.1 26.1 76 3.4 N 15 20 8 11 1007.7 1007.7 0.0
27/01:30pm 30.7 35.3 26.0 76 3.3 N 13 19 7 10 1008.1 1008.1 0.0
27/01:00pm 31.1 36.9 26.6 77 3.2 N 9 19 5 10 1008.9 1008.9 0.0
27/12:30pm 30.5 34.9 26.2 78 3.1 NNE 15 20 8 11 1009.5 1009.5 0.0
27/12:00pm 30.5 35.4 26.4 79 2.9 NNE 13 20 7 11 1009.9 1009.9 0.0
27/11:30am 30.3 35.3 26.5 80 2.7 NNE 13 19 7 10 1010.4 1010.4 0.0
27/11:00am 30.8 36.6 27.2 81 2.6 NNE 11 15 6 8 1010.5 1010.5 0.0
27/10:30am 30.6 36.4 27.2 82 2.5 NNE 11 17 6 9 1010.7 1010.7 0.0
27/10:00am 30.2 36.6 27.0 83 2.3 NNE 7 15 4 8 1010.7 1010.7 0.0
27/09:30am 29.7 35.7 26.9 85 2.0 N 9 11 5 6 1010.6 1010.6 0.0
27/09:00am 29.4 35.6 26.6 85 2.0 N 7 13 4 7 1010.6 1010.6 0.0
27/08:49am 29.2 35.6 26.6 86 1.9 NNE 6 9 3 5 1010.5 1010.5 0.0
27/08:35am 29.2 35.4 26.6 86 1.9 N 7 11 4 6 1010.3 1010.3 0.0
27/08:30am 29.1 35.5 26.7 87 1.7 NNE 6 11 3 6 1010.2 1010.2 0.0
27/08:00am 28.4 35.6 26.2 88 1.6 CALM 0 0 0 0 1009.9 1009.9 0.0
27/07:30am 27.1 33.5 24.9 88 1.5 CALM 0 0 0 0 1009.4 1009.4 0.0
27/07:00am 25.9 31.6 23.8 88 1.4 CALM 0 0 0 0 1008.9 1008.9 0.0
27/06:30am 25.7 31.2 23.4 87 1.6 CALM 0 0 0 0 1008.7 1008.7 0.0
27/06:00am 25.7 31.2 23.4 87 1.6 CALM 0 0 0 0 1008.1 1008.1 0.0
27/05:30am 26.0 31.7 23.7 87 1.6 CALM 0 0 0 0 1007.8 1007.8 0.0
27/05:00am 25.9 31.5 23.6 87 1.6 CALM 0 0 0 0 1007.5 1007.5 0.0
27/04:30am 26.0 31.7 23.7 87 1.6 CALM 0 0 0 0 1007.6 1007.6 0.0
27/04:00am 26.1 31.7 23.6 86 1.7 CALM 0 0 0 0 1007.3 1007.3 0.0
27/03:30am 26.2 31.9 23.7 86 1.7 CALM 0 0 0 0 1007.3 1007.3 0.0
27/03:00am 26.2 31.9 23.7 86 1.7 CALM 0 0 0 0 1007.5 1007.5 0.0
27/02:30am 26.1 31.6 23.4 85 1.8 CALM 0 0 0 0 1007.7 1007.7 0.0
27/02:00am 26.6 32.4 23.9 85 1.9 CALM 0 0 0 0 1008.1 1008.1 0.0
27/01:30am 26.5 32.2 23.8 85 1.9 CALM 0 0 0 0 1008.4 1008.4 0.0
27/01:00am 26.5 32.1 23.6 84 2.0 CALM 0 0 0 0 1008.7 1008.7 0.0
27/12:30am 26.9 32.7 24.0 84 2.0 CALM 0 0 0 0 1008.9 1008.9 0.0
27/12:00am 26.8 32.6 23.9 84 2.0 CALM 0 0 0 0 1009.1 1009.1 0.0
 
Date/Time
EST
Temp
°C
App
Temp
°C
Dew
Point
°C
Rel
Hum
%
Delta-T
°C
Wind Press
QNH
hPa
Press
MSL
hPa
Rain since
9am
mm
Dir  Spd
km/h
Gust
km/h
Spd
kts
Gust
kts
26/11:30pm 26.9 32.6 23.8 83 2.1 CALM 0 0 0 0 1009.5 1009.5 0.0
26/11:00pm 27.1 32.8 23.8 82 2.3 CALM 0 0 0 0 1009.4 1009.4 0.0
26/10:30pm 27.1 32.8 23.8 82 2.3 CALM 0 0 0 0 1009.5 1009.5 0.0
26/10:00pm 27.4 33.1 23.8 81 2.5 CALM 0 0 0 0 1009.1 1009.1 0.0
26/09:30pm 27.5 32.7 23.5 79 2.7 ESE 2 7 1 4 1008.7 1008.7 0.0
26/09:00pm 27.9 33.6 23.7 78 2.9 CALM 0 0 0 0 1008.4 1008.4 0.0
26/08:30pm 28.3 34.1 23.9 77 3.0 CALM 0 4 0 2 1008.3 1008.3 0.0
26/08:00pm 28.5 33.5 23.9 76 3.2 NE 4 11 2 6 1007.9 1007.9 0.0
26/07:30pm 28.6 33.1 23.7 75 3.4 NW 6 6 3 3 1007.6 1007.6 0.0
26/07:00pm 29.0 33.7 23.9 74 3.5 NW 6 7 3 4 1007.4 1007.4 0.0
26/06:30pm 29.5 34.1 24.1 72 3.7 NNW 7 11 4 6 1007.0 1007.0 0.0
26/06:00pm 29.9 34.2 24.3 72 3.9 NNW 9 13 5 7 1006.8 1006.8 0.0
26/05:30pm 29.8 33.3 24.2 72 3.9 NNW 13 15 7 8 1006.6 1006.6 0.0
26/05:00pm 30.5 34.2 24.6 70 4.1 N 13 19 7 10 1006.5 1006.5 0.0
26/04:30pm 30.6 34.4 24.7 71 4.1 NNW 13 19 7 10 1006.5 1006.5 0.0
26/04:00pm 30.8 34.7 24.9 71 4.2 N 13 17 7 9 1006.6 1006.6 0.0
26/03:30pm 30.9 34.5 25.0 71 4.2 N 15 19 8 10 1006.9 1006.9 0.0

Other formats

Comma delimited format used in spreadsheet applications
http://www.bom.gov.au/fwo/IDQ60801/IDQ60801.94174.axf

JavaScript Object Notation format (JSON) in row-major order
http://www.bom.gov.au/fwo/IDQ60801/IDQ60801.94174.json

Data quality

Most of these data are generated automatically and are frequently updated. Quality checks on data are not normally performed. It is possible for incorrect values to appear. Refer to information at About Latest Weather Observations and please check the disclaimer before using these data.